createdAt,value
2023-01-11T00:00:43.551Z,4.50
2023-01-11T00:03:10.901Z,4.32
2023-01-11T00:05:42.242Z,4.93
2023-01-11T00:08:09.912Z,4.00
2023-01-11T00:10:37.420Z,4.22
2023-01-11T00:13:05.510Z,4.50
2023-01-11T00:15:32.923Z,4.40
2023-01-11T00:18:02.880Z,4.20
2023-01-11T00:20:30.365Z,4.43
2023-01-11T00:22:57.732Z,4.28
2023-01-11T00:25:25.349Z,4.85
2023-01-11T00:27:55.289Z,4.47
2023-01-11T00:30:23.084Z,4.55
2023-01-11T00:32:50.510Z,4.40
2023-01-11T00:35:17.949Z,4.78
2023-01-11T00:37:45.283Z,4.43
2023-01-11T00:40:12.882Z,4.30
2023-01-11T00:42:58.961Z,4.65
2023-01-11T00:45:44.968Z,4.40
2023-01-11T00:48:12.413Z,3.85
2023-01-11T00:50:40.848Z,4.20
2023-01-11T00:53:09.752Z,4.30
2023-01-11T00:55:37.487Z,4.15
2023-01-11T00:58:05.047Z,4.68
2023-01-11T01:00:32.483Z,4.35
2023-01-11T01:02:59.914Z,4.57
2023-01-11T01:05:27.328Z,4.82
2023-01-11T01:07:54.766Z,4.55
2023-01-11T01:10:22.516Z,4.70
2023-01-11T01:13:08.542Z,4.78
2023-01-11T01:15:36.193Z,4.50
2023-01-11T01:18:03.636Z,4.93
2023-01-11T01:20:31.036Z,4.57
2023-01-11T01:22:58.400Z,4.40
2023-01-11T01:25:25.831Z,4.88
2023-01-11T01:27:53.142Z,4.63
2023-01-11T01:30:20.673Z,5.13
2023-01-11T01:32:48.137Z,4.55
2023-01-11T01:35:15.623Z,4.80
2023-01-11T01:37:44.872Z,5.07
2023-01-11T01:40:12.646Z,4.75
2023-01-11T01:42:39.974Z,4.70
2023-01-11T01:45:07.649Z,5.13
2023-01-11T01:47:38.110Z,5.25
2023-01-11T01:50:08.636Z,5.07
2023-01-11T01:52:36.647Z,5.25
2023-01-11T01:55:06.498Z,4.75
2023-01-11T01:57:35.431Z,5.13
2023-01-11T02:00:04.882Z,5.05
2023-01-11T02:02:34.180Z,5.07
2023-01-11T02:05:01.702Z,5.53
2023-01-11T02:07:33.783Z,5.63
2023-01-11T02:10:06.653Z,5.15
2023-01-11T02:12:45.757Z,5.20
2023-01-11T02:15:14.098Z,5.90
2023-01-11T02:17:41.464Z,5.53
2023-01-11T02:20:14.987Z,5.50
2023-01-11T02:22:45.501Z,5.18
2023-01-11T02:25:15.965Z,6.13
2023-01-11T02:28:02.210Z,5.38
2023-01-11T02:30:35.050Z,5.72
2023-01-11T02:33:11.648Z,5.78
2023-01-11T02:35:45.064Z,5.70
2023-01-11T02:38:20.813Z,5.75
2023-01-11T02:40:48.157Z,5.20
2023-01-11T02:43:48.393Z,5.47
2023-01-11T02:46:33.849Z,5.57
2023-01-11T02:49:09.319Z,5.07
2023-01-11T02:51:41.670Z,5.38
2023-01-11T02:54:10.089Z,5.53
2023-01-11T02:56:39.861Z,5.50
2023-01-11T02:59:10.126Z,5.60
2023-01-11T03:01:55.715Z,5.65
2023-01-11T03:06:53.423Z,6.03
2023-01-11T03:09:26.109Z,6.30
2023-01-11T03:12:27.392Z,6.80
2023-01-11T03:15:05.478Z,6.05
2023-01-11T03:17:38.783Z,5.55
2023-01-11T03:20:18.511Z,5.90
2023-01-11T03:23:12.308Z,5.97
2023-01-11T03:25:55.076Z,5.50
2023-01-11T03:28:35.465Z,5.80
2023-01-11T03:31:05.735Z,5.70
2023-01-11T03:33:44.889Z,5.80
2023-01-11T03:36:18.658Z,5.45
2023-01-11T03:38:57.373Z,5.38
2023-01-11T03:41:26.411Z,5.45
2023-01-11T03:43:55.014Z,5.65
2023-01-11T03:46:28.718Z,5.50
2023-01-11T03:49:07.142Z,5.90
2023-01-11T03:51:38.298Z,5.50
2023-01-11T03:54:07.492Z,5.57
2023-01-11T03:56:39.129Z,5.63
2023-01-11T03:59:06.847Z,6.00
2023-01-11T04:01:34.277Z,5.97
2023-01-11T04:04:01.863Z,5.97
2023-01-11T04:06:29.531Z,6.57
2023-01-11T04:08:57.021Z,6.13
2023-01-11T04:11:24.448Z,6.25
2023-01-11T04:13:51.957Z,6.28
2023-01-11T04:16:19.370Z,6.45
2023-01-11T04:18:46.843Z,7.20
2023-01-11T04:21:14.298Z,6.80
2023-01-11T04:23:41.734Z,6.15
2023-01-11T04:26:09.170Z,6.05
2023-01-11T04:28:36.595Z,6.45
2023-01-11T04:31:04.204Z,6.90
2023-01-11T04:33:31.788Z,6.55
2023-01-11T04:35:59.128Z,6.57
2023-01-11T04:38:27.262Z,6.70
2023-01-11T04:41:14.553Z,6.95
2023-01-11T04:43:42.162Z,7.47
2023-01-11T04:46:11.008Z,8.35
2023-01-11T04:48:39.379Z,9.60
2023-01-11T04:51:07.304Z,11.52
2023-01-11T04:53:34.773Z,15.85
2023-01-11T04:56:02.941Z,12.02
2023-01-11T04:58:30.959Z,84.68
2023-01-11T05:00:58.345Z,253.95
2023-01-11T05:03:25.953Z,316.38
2023-01-11T05:06:00.309Z,84.03
2023-01-11T05:08:28.528Z,17.07
2023-01-11T05:10:59.829Z,327.92
2023-01-11T05:13:42.925Z,92.72
2023-01-11T05:16:13.286Z,11.00
2023-01-11T05:18:44.657Z,34.05
2023-01-11T05:21:14.188Z,515.25
2023-01-11T05:23:42.362Z,166.60
2023-01-11T05:26:11.227Z,471.05
2023-01-11T05:28:38.866Z,343.75
2023-01-11T05:31:07.668Z,365.63
2023-01-11T05:33:35.177Z,693.67
2023-01-11T05:36:13.601Z,463.52
2023-01-11T05:38:41.026Z,552.33
2023-01-11T05:41:10.207Z,742.00
2023-01-11T05:43:58.070Z,651.75
2023-01-11T05:46:26.546Z,598.17
2023-01-11T05:48:55.947Z,484.48
2023-01-11T05:51:23.795Z,671.70
2023-01-11T05:53:51.127Z,861.35
2023-01-11T05:56:18.578Z,13.35
2023-01-11T05:58:48.886Z,14.73
2023-01-11T06:01:16.643Z,163.68
2023-01-11T06:03:43.992Z,674.05
2023-01-11T06:06:11.403Z,757.03
2023-01-11T06:08:38.789Z,624.22
2023-01-11T06:11:06.394Z,434.60
2023-01-11T06:13:35.963Z,444.23
2023-01-11T06:16:07.995Z,640.80
2023-01-11T06:18:37.016Z,568.03
2023-01-11T06:21:04.841Z,846.72
2023-01-11T06:23:33.679Z,858.25
2023-01-11T06:26:05.114Z,619.97
2023-01-11T06:28:32.580Z,116.40
2023-01-11T06:31:00.301Z,81.30
2023-01-11T06:33:28.747Z,802.58
2023-01-11T06:35:56.516Z,734.40
2023-01-11T06:38:24.916Z,102.38
2023-01-11T06:40:56.415Z,20.77
2023-01-11T06:43:24.669Z,11.85
2023-01-11T06:45:52.199Z,12.27
2023-01-11T06:48:20.455Z,11.32
2023-01-11T06:50:51.255Z,11.68
2023-01-11T06:53:18.657Z,11.77
2023-01-11T06:55:49.822Z,11.68
2023-01-11T06:58:17.390Z,11.18
2023-01-11T07:00:44.808Z,13.50
2023-01-11T07:03:13.361Z,12.18
2023-01-11T07:05:41.256Z,12.85
2023-01-11T07:08:08.708Z,11.57
2023-01-11T07:10:36.154Z,12.52
2023-01-11T07:13:03.737Z,11.15
2023-01-11T07:15:31.378Z,10.20
2023-01-11T07:17:59.848Z,11.40
2023-01-11T07:20:27.743Z,11.60
2023-01-11T07:22:59.405Z,13.48
2023-01-11T07:25:27.823Z,15.10
2023-01-11T07:27:59.329Z,15.05
2023-01-11T07:30:27.681Z,15.02
2023-01-11T07:32:55.220Z,14.98
2023-01-11T07:35:22.757Z,13.73
2023-01-11T07:37:50.299Z,16.88
2023-01-11T07:40:18.696Z,18.63
2023-01-11T07:43:11.797Z,20.45
2023-01-11T07:45:45.667Z,19.30
2023-01-11T07:48:14.059Z,20.92
2023-01-11T07:50:44.597Z,19.23
2023-01-11T07:53:12.978Z,21.33
2023-01-11T07:55:40.750Z,19.15
2023-01-11T07:58:09.123Z,18.85
2023-01-11T08:00:36.511Z,19.55
2023-01-11T08:03:04.086Z,20.95
2023-01-11T08:05:31.512Z,17.83
2023-01-11T08:07:59.021Z,18.52
2023-01-11T08:10:26.452Z,21.15
2023-01-11T08:13:12.411Z,19.23
2023-01-11T08:15:42.688Z,21.50
2023-01-11T08:18:11.596Z,24.65
2023-01-11T08:20:39.362Z,27.70
2023-01-11T08:23:07.673Z,27.15
2023-01-11T08:25:35.180Z,24.02
2023-01-11T08:28:06.824Z,28.65
2023-01-11T08:30:34.518Z,29.67
2023-01-11T08:33:02.549Z,29.65
2023-01-11T08:35:30.224Z,33.25
2023-01-11T08:37:57.748Z,33.50
2023-01-11T08:40:27.957Z,31.67
2023-01-11T08:42:56.954Z,31.35
2023-01-11T08:45:24.580Z,33.60
2023-01-11T08:47:53.254Z,35.35
2023-01-11T08:50:22.057Z,35.58
2023-01-11T08:52:51.124Z,35.70
2023-01-11T08:55:19.078Z,35.22
2023-01-11T08:57:46.494Z,37.03
2023-01-11T09:00:14.292Z,37.92
2023-01-11T09:02:41.704Z,34.00
2023-01-11T09:05:09.488Z,32.78
2023-01-11T09:07:36.979Z,29.63
2023-01-11T09:10:04.638Z,29.60
2023-01-11T09:12:33.562Z,30.70
2023-01-11T09:15:01.146Z,30.38
2023-01-11T09:17:28.919Z,21.60
2023-01-11T09:19:56.461Z,20.48
2023-01-11T09:22:24.093Z,19.77
2023-01-11T09:24:51.569Z,16.70
2023-01-11T09:27:19.268Z,16.35
2023-01-11T09:29:46.622Z,18.13
2023-01-11T09:32:14.117Z,19.00
2023-01-11T09:34:42.923Z,17.13
2023-01-11T09:37:10.480Z,14.68
2023-01-11T09:39:39.155Z,13.75
2023-01-11T09:42:12.411Z,13.70
2023-01-11T09:44:48.120Z,11.60
2023-01-11T09:47:22.190Z,13.73
2023-01-11T09:49:54.548Z,13.80
2023-01-11T09:52:32.930Z,14.32
2023-01-11T09:55:01.477Z,13.77
2023-01-11T09:57:53.720Z,13.45
2023-01-11T10:00:28.862Z,15.02
2023-01-11T10:02:59.265Z,13.48
2023-01-11T10:05:34.800Z,13.60
2023-01-11T10:18:30.653Z,15.38
2023-01-11T10:18:31.923Z,14.52
2023-01-11T10:19:54.412Z,14.25
2023-01-11T10:22:24.670Z,15.30
2023-01-11T10:24:56.403Z,19.08
2023-01-11T10:27:33.775Z,19.25
2023-01-11T10:30:33.551Z,19.48
2023-01-11T10:33:14.557Z,17.63
2023-01-11T10:35:44.971Z,19.73
2023-01-11T10:38:43.661Z,19.77
2023-01-11T10:41:22.270Z,22.60
2023-01-11T10:43:53.279Z,26.70
2023-01-11T10:46:24.344Z,21.02
2023-01-11T10:48:57.310Z,18.15
2023-01-11T10:51:27.976Z,16.25
2023-01-11T10:54:00.080Z,18.20
2023-01-11T10:56:36.369Z,23.17
2023-01-11T10:59:10.750Z,23.23
2023-01-11T11:01:58.504Z,19.70
2023-01-11T11:04:34.935Z,17.35
2023-01-11T11:07:07.575Z,14.88
2023-01-11T11:09:35.033Z,11.93
2023-01-11T11:12:21.190Z,11.35
2023-01-11T11:15:11.596Z,11.07
2023-01-11T11:17:41.130Z,14.32
2023-01-11T11:20:13.778Z,14.15
2023-01-11T11:22:41.321Z,10.02
2023-01-11T11:25:15.504Z,11.85
2023-01-11T11:27:47.054Z,12.02
2023-01-11T11:30:15.123Z,11.85
2023-01-11T11:32:47.713Z,13.95
2023-01-11T11:35:30.881Z,14.05
2023-01-11T11:37:58.502Z,15.32
2023-01-11T11:40:36.303Z,20.42
2023-01-11T11:43:19.021Z,20.48
2023-01-11T11:45:57.285Z,23.70
2023-01-11T11:48:26.181Z,23.20
2023-01-11T11:50:54.826Z,23.00
2023-01-11T11:53:25.922Z,24.15
2023-01-11T11:55:54.043Z,23.58
2023-01-11T11:58:23.024Z,24.75
2023-01-11T12:00:52.076Z,24.83
2023-01-11T12:03:28.277Z,22.63
2023-01-11T12:06:07.551Z,25.02
2023-01-11T12:08:35.607Z,22.15
2023-01-11T12:11:04.399Z,21.95
2023-01-11T12:13:38.864Z,23.13
2023-01-11T12:16:35.801Z,24.83
2023-01-11T12:19:03.405Z,24.23
2023-01-11T12:21:30.870Z,25.08
2023-01-11T12:24:19.379Z,26.42
2023-01-11T12:26:53.107Z,19.08
2023-01-11T12:29:36.524Z,19.15
2023-01-11T12:32:13.774Z,21.63
2023-01-11T12:34:53.489Z,4.95
2023-01-11T12:37:39.341Z,3.90
2023-01-11T12:40:30.169Z,3.53
2023-01-11T12:43:06.791Z,3.63
2023-01-11T12:45:34.322Z,4.47
2023-01-11T12:48:20.399Z,5.10
2023-01-11T12:51:05.990Z,5.18
2023-01-11T12:53:48.679Z,3.60
2023-01-11T12:56:22.203Z,2.40
2023-01-11T12:58:53.604Z,2.80
2023-01-11T13:01:39.168Z,4.75
2023-01-11T13:04:20.247Z,3.60
2023-01-11T13:06:56.663Z,4.50
2023-01-11T13:09:30.630Z,3.60
2023-01-11T13:12:03.828Z,3.60
2023-01-11T13:14:31.243Z,3.40
2023-01-11T13:17:16.951Z,3.85
2023-01-11T13:22:22.206Z,4.50
2023-01-11T13:24:51.468Z,5.00
2023-01-11T13:27:22.515Z,5.13
2023-01-11T13:29:54.956Z,4.70
2023-01-11T13:32:29.091Z,4.78
2023-01-11T13:34:59.464Z,4.05
2023-01-11T13:37:30.472Z,5.40
2023-01-11T13:40:16.754Z,5.60
2023-01-11T13:43:10.546Z,5.05
2023-01-11T13:45:41.059Z,5.43
2023-01-11T13:48:27.113Z,5.47
2023-01-11T13:50:57.609Z,6.07
2023-01-11T13:53:43.447Z,5.97
2023-01-11T13:58:42.158Z,5.15
2023-01-11T14:01:15.302Z,6.30
2023-01-11T14:03:45.649Z,6.65
2023-01-11T14:06:26.870Z,9.65
2023-01-11T14:08:54.281Z,7.57
2023-01-11T14:11:27.641Z,7.80
2023-01-11T14:14:13.341Z,7.30
2023-01-11T14:16:50.857Z,7.43
2023-01-11T14:19:18.353Z,11.05
2023-01-11T14:22:04.543Z,9.23
2023-01-11T14:24:33.906Z,10.45
2023-01-11T14:27:20.032Z,17.80
2023-01-11T14:29:50.367Z,9.05
2023-01-11T14:32:20.989Z,11.80
2023-01-11T14:34:51.395Z,9.73
2023-01-11T14:37:31.125Z,19.50
2023-01-11T14:39:58.573Z,11.63
2023-01-11T14:42:44.738Z,10.80
2023-01-11T14:45:30.657Z,8.18
2023-01-11T14:48:12.199Z,15.30
2023-01-11T14:50:51.222Z,10.35
2023-01-11T14:53:21.465Z,10.73
2023-01-11T14:55:49.307Z,11.60
2023-01-11T14:58:25.090Z,11.30
2023-01-11T15:00:55.359Z,11.32
2023-01-11T15:03:22.770Z,8.40
2023-01-11T15:05:59.067Z,14.00
2023-01-11T15:08:27.934Z,13.23
2023-01-11T15:10:58.211Z,11.13
2023-01-11T15:13:25.814Z,8.60
2023-01-11T15:16:12.269Z,11.98
2023-01-11T15:18:46.866Z,8.60
2023-01-11T15:21:19.645Z,10.00
2023-01-11T15:23:49.262Z,7.60
2023-01-11T15:26:18.726Z,9.55
2023-01-11T15:28:56.097Z,13.05
2023-01-11T15:31:39.203Z,11.93
2023-01-11T15:34:25.793Z,11.70
2023-01-11T15:36:53.628Z,13.18
2023-01-11T15:39:34.172Z,11.73
2023-01-11T15:42:16.759Z,7.93
2023-01-11T15:45:05.934Z,7.80
2023-01-11T15:47:39.616Z,10.65
2023-01-11T15:50:25.695Z,9.15
2023-01-11T15:53:11.663Z,8.30
2023-01-11T15:55:57.365Z,11.40
2023-01-11T15:58:28.230Z,13.93
2023-01-11T16:01:04.869Z,12.88
2023-01-11T16:03:49.894Z,17.60
2023-01-11T16:06:20.399Z,10.40
2023-01-11T16:08:56.711Z,14.88
2023-01-11T16:11:43.368Z,8.55
2023-01-11T16:14:25.941Z,10.30
2023-01-11T16:16:55.792Z,9.73
2023-01-11T16:19:24.340Z,8.77
2023-01-11T16:21:58.950Z,11.23
2023-01-11T16:24:28.891Z,12.73
2023-01-11T16:26:58.543Z,11.90
2023-01-11T16:29:27.277Z,10.07
2023-01-11T16:31:59.279Z,13.48
2023-01-11T16:34:28.937Z,10.73
2023-01-11T16:36:57.636Z,9.52
2023-01-11T16:39:26.652Z,10.05
2023-01-11T16:41:56.780Z,12.73
2023-01-11T16:44:33.372Z,12.60
2023-01-11T16:47:11.363Z,10.93
2023-01-11T16:49:39.573Z,9.45
2023-01-11T16:52:37.742Z,7.90
2023-01-11T16:55:14.721Z,9.02
2023-01-11T16:57:44.764Z,9.52
2023-01-11T17:00:35.760Z,6.75
2023-01-11T17:03:06.657Z,9.13
2023-01-11T17:05:34.148Z,9.40
2023-01-11T17:08:01.590Z,10.73
2023-01-11T17:10:31.048Z,13.00
2023-01-11T17:12:58.461Z,8.73
2023-01-11T17:15:34.345Z,9.75
2023-01-11T17:18:05.387Z,8.18
2023-01-11T17:20:33.456Z,7.28
2023-01-11T17:23:00.857Z,7.15
2023-01-11T17:25:43.501Z,7.60
2023-01-11T17:28:16.965Z,7.25
2023-01-11T17:30:45.978Z,8.00
2023-01-11T17:33:42.589Z,8.95
2023-01-11T17:36:10.104Z,7.03
2023-01-11T17:38:37.586Z,7.65
2023-01-11T17:41:25.531Z,9.07
2023-01-11T17:44:11.647Z,6.28
2023-01-11T17:46:40.855Z,5.95
2023-01-11T17:49:19.673Z,6.40
2023-01-11T17:51:47.221Z,6.35
2023-01-11T17:54:24.214Z,5.57
2023-01-11T17:56:56.247Z,7.70
2023-01-11T17:59:27.938Z,6.43
2023-01-11T18:02:00.200Z,8.82
2023-01-11T18:04:28.481Z,8.98
2023-01-11T18:06:57.148Z,8.43
2023-01-11T18:09:29.727Z,9.68
2023-01-11T18:12:12.847Z,53.50
2023-01-11T18:14:57.228Z,161.55
2023-01-11T18:17:30.664Z,34.58
2023-01-11T18:19:58.759Z,11.32
2023-01-11T18:22:35.201Z,66.95
2023-01-11T18:25:04.711Z,9.40
2023-01-11T18:27:33.739Z,15.43
2023-01-11T18:30:07.690Z,40.25
2023-01-11T18:32:37.401Z,120.75
2023-01-11T18:35:05.172Z,125.72
2023-01-11T18:37:32.716Z,16.52
2023-01-11T18:40:01.415Z,165.52
2023-01-11T18:42:31.333Z,61.97
2023-01-11T18:44:58.835Z,38.50
2023-01-11T18:47:28.464Z,29.05
2023-01-11T18:49:56.185Z,12.48
2023-01-11T18:52:28.573Z,7.55
2023-01-11T18:54:56.716Z,8.50
2023-01-11T18:57:24.710Z,8.38
2023-01-11T18:59:52.857Z,8.48
2023-01-11T19:02:29.576Z,12.07
2023-01-11T19:04:57.602Z,12.60
2023-01-11T19:07:26.192Z,10.32
2023-01-11T19:09:59.299Z,12.10
2023-01-11T19:12:26.853Z,11.65
2023-01-11T19:14:54.192Z,11.40
2023-01-11T19:17:21.812Z,12.77
2023-01-11T19:19:49.285Z,8.73
2023-01-11T19:22:17.078Z,8.32
2023-01-11T19:24:44.636Z,6.30
2023-01-11T19:27:13.451Z,7.03
2023-01-11T19:29:41.353Z,4.88
2023-01-11T19:32:09.121Z,5.38
2023-01-11T19:34:36.604Z,4.30
2023-01-11T19:37:04.239Z,4.70
2023-01-11T19:39:31.804Z,5.18
2023-01-11T19:42:01.868Z,5.15
2023-01-11T19:44:38.867Z,5.53
2023-01-11T19:47:12.006Z,5.90
2023-01-11T19:49:40.243Z,6.15
2023-01-11T19:52:12.563Z,8.77
2023-01-11T19:54:44.298Z,8.27
2023-01-11T19:57:17.990Z,7.38
2023-01-11T19:59:45.648Z,7.03
2023-01-11T20:02:13.822Z,7.53
2023-01-11T20:04:41.613Z,7.35
2023-01-11T20:07:09.737Z,7.97
2023-01-11T20:09:37.873Z,8.55
2023-01-11T20:12:09.123Z,7.88
2023-01-11T20:14:38.238Z,9.93
2023-01-11T20:17:05.619Z,8.68
2023-01-11T20:19:33.142Z,10.45
2023-01-11T20:22:00.597Z,10.27
2023-01-11T20:24:29.799Z,9.40
2023-01-11T20:26:58.232Z,8.88
2023-01-11T20:29:25.991Z,8.95
2023-01-11T20:31:53.451Z,8.68
2023-01-11T20:34:21.155Z,7.88
2023-01-11T20:36:49.056Z,9.07
2023-01-11T20:39:17.586Z,8.80
2023-01-11T20:41:48.471Z,9.48
2023-01-11T20:44:16.197Z,10.32
2023-01-11T20:46:45.732Z,9.63
2023-01-11T20:49:15.271Z,9.20
2023-01-11T20:51:43.061Z,8.63
2023-01-11T20:54:11.590Z,7.43
2023-01-11T20:56:39.557Z,7.93
2023-01-11T20:59:07.720Z,8.00
2023-01-11T21:01:35.359Z,7.88
2023-01-11T21:04:04.287Z,8.02
2023-01-11T21:06:32.268Z,7.03
2023-01-11T21:09:00.656Z,8.52
2023-01-11T21:11:28.932Z,8.27
2023-01-11T21:16:25.377Z,8.85
2023-01-11T21:18:57.128Z,6.90
2023-01-11T21:21:25.194Z,6.95
2023-01-11T21:24:00.470Z,7.72
2023-01-11T21:28:59.265Z,7.22
2023-01-11T21:31:30.184Z,7.68
2023-01-11T21:33:58.384Z,8.02
2023-01-11T21:36:26.661Z,7.95
2023-01-11T21:38:54.926Z,9.55
2023-01-11T21:41:43.253Z,8.85
2023-01-11T21:44:11.620Z,8.43
2023-01-11T21:46:39.359Z,6.68
2023-01-11T21:49:07.144Z,7.35
2023-01-11T21:51:35.046Z,7.47
2023-01-11T21:54:07.208Z,6.85
2023-01-11T21:56:34.775Z,7.18
2023-01-11T21:59:02.278Z,6.50
2023-01-11T22:01:29.877Z,7.53
2023-01-11T22:03:57.410Z,5.57
2023-01-11T22:06:24.938Z,4.80
2023-01-11T22:08:52.536Z,4.82
2023-01-11T22:11:19.940Z,5.72
2023-01-11T22:13:47.436Z,7.03
2023-01-11T22:16:16.356Z,8.15
2023-01-11T22:18:43.938Z,7.80
2023-01-11T22:21:17.072Z,8.00
2023-01-11T22:23:45.301Z,8.77
2023-01-11T22:26:13.983Z,7.70
2023-01-11T22:29:00.301Z,7.40
2023-01-11T22:31:28.559Z,6.80
2023-01-11T22:33:56.346Z,5.93
2023-01-11T22:36:24.574Z,5.78
2023-01-11T22:38:52.349Z,4.95
2023-01-11T22:41:20.228Z,4.63
2023-01-11T22:43:47.682Z,4.30
2023-01-11T22:46:16.572Z,4.63
2023-01-11T22:48:44.434Z,5.03
2023-01-11T22:51:12.261Z,4.32
2023-01-11T22:53:42.062Z,3.83
2023-01-11T22:56:10.254Z,3.55
2023-01-11T22:58:37.859Z,3.92
2023-01-11T23:01:37.885Z,4.57
2023-01-11T23:04:06.080Z,4.50
2023-01-11T23:06:34.884Z,3.75
2023-01-11T23:09:02.600Z,4.10
2023-01-11T23:11:49.867Z,3.92
2023-01-11T23:14:18.546Z,5.45
2023-01-11T23:16:46.611Z,4.88
2023-01-11T23:19:15.187Z,4.60
2023-01-11T23:21:43.775Z,4.93
2023-01-11T23:24:11.722Z,4.30
2023-01-11T23:26:39.220Z,5.47
2023-01-11T23:29:06.944Z,5.60
2023-01-11T23:31:35.239Z,6.03
2023-01-11T23:34:03.322Z,5.82
2023-01-11T23:36:32.088Z,6.03
2023-01-11T23:38:59.630Z,5.85
2023-01-11T23:41:45.974Z,5.32
2023-01-11T23:44:14.551Z,5.72
2023-01-11T23:47:01.273Z,5.40
2023-01-11T23:49:29.546Z,5.28
2023-01-11T23:51:57.232Z,6.18
2023-01-11T23:54:27.281Z,5.70
2023-01-11T23:56:55.220Z,5.35
2023-01-11T23:59:22.612Z,5.78
